createdAt,value
2019-05-19T00:02:10.839Z,84.20
2019-05-19T00:07:12.315Z,90.20
2019-05-19T00:12:13.953Z,92.05
2019-05-19T00:17:15.490Z,88.63
2019-05-19T00:22:17.036Z,90.15
2019-05-19T00:27:18.555Z,87.80
2019-05-19T00:32:20.065Z,94.83
2019-05-19T00:37:21.538Z,100.25
2019-05-19T00:42:23.175Z,97.50
2019-05-19T00:47:24.707Z,100.33
2019-05-19T00:52:26.059Z,94.95
2019-05-19T00:57:27.643Z,96.95
2019-05-19T01:02:29.017Z,92.37
2019-05-19T01:07:30.513Z,95.50
2019-05-19T01:12:32.013Z,99.07
2019-05-19T01:17:33.331Z,105.67
2019-05-19T01:22:34.842Z,102.15
2019-05-19T01:27:36.346Z,96.77
2019-05-19T01:32:37.643Z,100.78
2019-05-19T01:37:39.042Z,98.00
2019-05-19T01:42:40.472Z,102.92
2019-05-19T01:47:42.012Z,107.77
2019-05-19T01:52:43.514Z,106.60
2019-05-19T01:57:45.021Z,104.00
2019-05-19T02:02:46.526Z,112.73
2019-05-19T02:07:48.001Z,105.00
2019-05-19T02:12:49.423Z,113.90
2019-05-19T02:17:50.902Z,112.47
2019-05-19T02:22:52.453Z,111.70
2019-05-19T02:27:53.816Z,109.40
2019-05-19T02:32:55.171Z,113.55
2019-05-19T02:37:56.724Z,114.27
2019-05-19T02:42:58.073Z,115.07
2019-05-19T02:47:59.638Z,117.53
2019-05-19T02:53:01.185Z,111.80
2019-05-19T02:58:02.492Z,113.13
2019-05-19T03:03:04.158Z,107.17
2019-05-19T03:08:05.674Z,112.20
2019-05-19T03:13:07.143Z,120.03
2019-05-19T03:18:08.657Z,117.40
2019-05-19T03:23:09.956Z,118.43
2019-05-19T03:28:11.622Z,117.73
2019-05-19T03:33:13.163Z,125.60
2019-05-19T03:38:14.569Z,121.47
2019-05-19T03:43:15.864Z,123.33
2019-05-19T03:48:17.257Z,124.47
2019-05-19T03:53:18.775Z,119.63
2019-05-19T03:58:20.281Z,125.78
2019-05-19T04:03:21.752Z,127.23
2019-05-19T04:08:23.250Z,125.07
2019-05-19T04:13:24.712Z,122.30
2019-05-19T04:18:26.266Z,110.40
2019-05-19T04:23:27.752Z,128.43
2019-05-19T04:28:29.274Z,115.83
2019-05-19T04:33:30.869Z,121.60
2019-05-19T04:38:32.362Z,106.10
2019-05-19T04:43:33.942Z,117.67
2019-05-19T04:48:35.457Z,114.93
2019-05-19T04:53:36.983Z,116.10
2019-05-19T04:58:38.494Z,118.57
2019-05-19T05:03:39.995Z,131.90
2019-05-19T05:08:41.576Z,117.53
2019-05-19T05:13:43.081Z,121.27
2019-05-19T05:18:47.690Z,120.37
2019-05-19T05:23:48.029Z,124.93
2019-05-19T05:28:49.442Z,117.93
2019-05-19T05:33:50.986Z,118.73
2019-05-19T05:38:52.603Z,116.27
2019-05-19T05:43:53.975Z,114.23
2019-05-19T05:48:55.536Z,114.77
2019-05-19T05:53:56.933Z,120.80
2019-05-19T05:58:59.575Z,113.30
2019-05-19T06:04:01.089Z,114.88
2019-05-19T06:09:03.298Z,117.25
2019-05-19T06:14:04.824Z,110.22
2019-05-19T06:19:06.334Z,110.83
2019-05-19T06:24:07.909Z,106.45
2019-05-19T06:29:09.446Z,104.40
2019-05-19T06:34:11.020Z,105.15
2019-05-19T06:39:12.561Z,102.25
2019-05-19T06:44:14.089Z,101.47
2019-05-19T06:49:15.516Z,98.30
2019-05-19T06:54:17.724Z,97.08
2019-05-19T06:59:19.304Z,98.47
2019-05-19T07:04:20.862Z,93.50
2019-05-19T07:09:22.570Z,88.75
2019-05-19T07:14:24.198Z,84.83
2019-05-19T07:19:25.808Z,81.53
2019-05-19T07:24:27.173Z,80.28
2019-05-19T07:29:28.677Z,80.05
2019-05-19T07:34:30.113Z,82.85
2019-05-19T07:39:31.584Z,78.40
2019-05-19T07:44:33.178Z,73.20
2019-05-19T07:49:34.728Z,69.40
2019-05-19T07:54:36.192Z,72.20
2019-05-19T07:59:37.744Z,75.72
2019-05-19T08:04:39.300Z,76.67
2019-05-19T08:09:40.834Z,72.27
2019-05-19T08:14:43.931Z,74.40
2019-05-19T08:19:45.486Z,74.17
2019-05-19T08:24:47.034Z,74.58
2019-05-19T08:29:48.471Z,67.27
2019-05-19T08:40:34.650Z,63.52
2019-05-19T08:45:36.072Z,61.63
2019-05-19T08:56:21.605Z,55.33
2019-05-19T09:01:22.929Z,60.58
2019-05-19T09:06:24.477Z,55.10
2019-05-19T09:11:25.885Z,49.90
2019-05-19T09:16:27.604Z,53.95
2019-05-19T09:21:29.187Z,48.92
2019-05-19T09:26:30.768Z,49.18
2019-05-19T09:31:32.306Z,54.55
2019-05-19T09:36:33.873Z,56.48
2019-05-19T09:41:35.417Z,57.58
2019-05-19T09:46:36.856Z,54.93
2019-05-19T09:51:38.499Z,58.60
2019-05-19T09:56:39.944Z,56.55
2019-05-19T10:01:41.567Z,51.35
2019-05-19T10:06:43.147Z,51.48
2019-05-19T10:12:13.791Z,49.50
2019-05-19T10:17:15.370Z,49.80
2019-05-19T10:22:18.191Z,52.53
2019-05-19T10:27:21.730Z,49.90
2019-05-19T10:32:23.299Z,50.35
2019-05-19T10:37:24.824Z,48.58
2019-05-19T10:42:26.299Z,48.78
2019-05-19T10:47:27.852Z,45.90
2019-05-19T10:52:29.460Z,48.92
2019-05-19T10:57:33.146Z,47.50
2019-05-19T11:02:34.596Z,47.67
2019-05-19T11:07:35.821Z,49.75
2019-05-19T11:12:37.263Z,48.42
2019-05-19T11:17:38.802Z,47.98
2019-05-19T11:22:40.438Z,46.40
2019-05-19T11:27:42.013Z,44.98
2019-05-19T11:32:43.477Z,44.55
2019-05-19T11:37:45.131Z,44.27
2019-05-19T11:42:47.017Z,42.80
2019-05-19T11:47:48.635Z,43.17
2019-05-19T11:52:50.226Z,44.45
2019-05-19T11:57:51.772Z,40.88
2019-05-19T12:02:53.364Z,44.08
2019-05-19T12:07:54.928Z,42.15
2019-05-19T12:12:56.564Z,42.90
2019-05-19T12:17:58.125Z,39.45
2019-05-19T12:22:59.645Z,40.90
2019-05-19T12:33:34.231Z,39.95
2019-05-19T12:38:35.866Z,40.45
2019-05-19T12:49:21.532Z,38.55
2019-05-19T12:54:23.429Z,36.15
2019-05-19T12:59:25.145Z,37.45
2019-05-19T13:04:26.685Z,37.03
2019-05-19T13:09:28.657Z,39.98
2019-05-19T13:14:33.147Z,41.02
2019-05-19T13:19:35.001Z,38.63
2019-05-19T13:24:36.555Z,41.35
2019-05-19T13:29:38.503Z,41.90
2019-05-19T13:34:40.374Z,41.77
2019-05-19T13:39:42.188Z,47.62
2019-05-19T13:44:44.132Z,41.75
2019-05-19T13:49:45.739Z,41.05
2019-05-19T13:54:47.257Z,45.90
2019-05-19T13:59:49.468Z,46.75
2019-05-19T14:04:51.038Z,43.58
2019-05-19T14:09:52.622Z,50.90
2019-05-19T14:14:55.059Z,42.80
2019-05-19T14:19:56.581Z,48.25
2019-05-19T14:24:58.159Z,43.55
2019-05-19T14:29:59.898Z,41.45
2019-05-19T14:35:01.585Z,43.28
2019-05-19T14:40:03.590Z,49.20
2019-05-19T14:45:05.095Z,42.73
2019-05-19T14:50:06.837Z,47.33
2019-05-19T14:55:08.843Z,45.05
2019-05-19T15:00:11.518Z,45.58
2019-05-19T15:05:13.463Z,52.30
2019-05-19T15:10:15.103Z,50.28
2019-05-19T15:15:16.622Z,50.85
2019-05-19T15:20:18.822Z,47.05
2019-05-19T15:25:20.758Z,51.25
2019-05-19T15:30:22.368Z,47.27
2019-05-19T15:35:23.805Z,49.60
2019-05-19T15:40:26.397Z,51.60
2019-05-19T15:45:27.922Z,46.48
2019-05-19T15:50:29.583Z,46.18
2019-05-19T15:55:31.439Z,46.42
2019-05-19T16:00:33.217Z,44.23
2019-05-19T16:05:34.512Z,50.67
2019-05-19T16:10:36.056Z,51.08
2019-05-19T16:15:37.562Z,54.33
2019-05-19T16:20:39.121Z,53.63
2019-05-19T16:25:40.999Z,50.25
2019-05-19T16:30:43.281Z,55.03
2019-05-19T16:35:44.885Z,51.90
2019-05-19T16:40:46.979Z,52.78
2019-05-19T16:45:48.469Z,51.28
2019-05-19T16:50:50.431Z,54.13
2019-05-19T16:55:52.558Z,54.85
2019-05-19T17:00:54.197Z,55.67
2019-05-19T17:05:56.065Z,53.78
2019-05-19T17:10:58.142Z,53.28
2019-05-19T17:16:00.162Z,53.52
2019-05-19T17:21:01.738Z,49.93
2019-05-19T17:26:03.596Z,49.67
2019-05-19T17:31:07.778Z,55.98
2019-05-19T17:36:09.234Z,52.15
2019-05-19T17:41:11.213Z,55.90
2019-05-19T17:46:13.193Z,53.38
2019-05-19T17:51:14.700Z,54.38
2019-05-19T17:56:16.244Z,54.80
2019-05-19T18:01:17.907Z,53.55
2019-05-19T18:06:19.429Z,56.33
2019-05-19T18:11:21.223Z,59.70
2019-05-19T18:16:22.760Z,66.05
2019-05-19T18:21:24.210Z,62.23
2019-05-19T18:26:26.037Z,67.08
2019-05-19T18:31:30.996Z,56.05
2019-05-19T18:36:31.899Z,65.17
2019-05-19T18:41:33.483Z,65.45
2019-05-19T18:46:35.037Z,63.90
2019-05-19T18:51:36.701Z,60.67
2019-05-19T18:56:38.958Z,67.05
2019-05-19T19:01:40.381Z,72.82
2019-05-19T19:06:41.964Z,63.48
2019-05-19T19:11:43.812Z,55.08
2019-05-19T19:16:45.707Z,58.33
2019-05-19T19:21:47.355Z,56.70
2019-05-19T19:26:48.866Z,61.15
2019-05-19T19:31:50.407Z,60.65
2019-05-19T19:36:52.288Z,60.45
2019-05-19T19:41:54.164Z,63.98
2019-05-19T19:46:55.700Z,69.67
2019-05-19T19:51:57.706Z,63.50
2019-05-19T19:57:00.517Z,67.12
2019-05-19T20:02:02.181Z,60.25
2019-05-19T20:07:04.160Z,60.20
2019-05-19T20:12:05.754Z,65.40
2019-05-19T20:17:07.330Z,65.37
2019-05-19T20:22:09.186Z,59.63
2019-05-19T20:27:11.060Z,60.28
2019-05-19T20:32:12.633Z,61.88
2019-05-19T20:37:15.296Z,59.48
2019-05-19T20:42:17.437Z,56.10
2019-05-19T20:47:19.517Z,61.45
2019-05-19T20:52:21.075Z,50.25
2019-05-19T20:57:23.415Z,50.65
2019-05-19T21:02:25.238Z,48.33
2019-05-19T21:07:27.016Z,52.70
2019-05-19T21:12:28.428Z,55.33
2019-05-19T21:17:29.963Z,52.78
2019-05-19T21:22:31.733Z,50.80
2019-05-19T21:27:33.297Z,45.08
2019-05-19T21:32:34.815Z,44.40
2019-05-19T21:37:36.267Z,46.98
2019-05-19T21:42:37.752Z,44.10
2019-05-19T21:47:39.563Z,45.88
2019-05-19T21:52:41.006Z,44.75
2019-05-19T21:57:42.556Z,43.52
2019-05-19T22:02:44.130Z,43.55
2019-05-19T22:07:45.635Z,43.98
2019-05-19T22:12:47.132Z,42.37
2019-05-19T22:17:48.735Z,43.10
2019-05-19T22:22:50.247Z,45.30
2019-05-19T22:27:52.170Z,48.08
2019-05-19T22:32:53.966Z,48.20
2019-05-19T22:37:55.677Z,53.60
2019-05-19T22:42:57.179Z,53.33
2019-05-19T22:47:58.910Z,53.17
2019-05-19T22:53:00.431Z,57.97
2019-05-19T22:58:02.030Z,57.23
2019-05-19T23:03:03.564Z,56.65
2019-05-19T23:08:05.482Z,60.40
2019-05-19T23:13:08.399Z,59.50
2019-05-19T23:18:10.480Z,60.73
2019-05-19T23:23:12.027Z,61.07
2019-05-19T23:28:13.572Z,55.92
2019-05-19T23:33:15.092Z,56.33
2019-05-19T23:38:16.949Z,59.70
2019-05-19T23:43:18.506Z,60.33
2019-05-19T23:48:20.068Z,59.73
2019-05-19T23:53:21.676Z,63.27
2019-05-19T23:58:23.665Z,59.37
